Time;durP1;ratioP1;P1;durP2;ratioP2;P2;SDS_P1;SDS_P2;PMS_P1;PMS_P2;Temp;Humidity;BMP_temperature;BMP_pressure;BME280_temperature;BME280_humidity;BME280_pressure;Samples;Min_cycle;Max_cycle;Signal;HPM_P1;HPM_P2
2023/04/13 07:26:58;;;;;;;;;1.25;1.25;;;;;16.91;46.29;100375.22;5110351;27;45495;-79
2023/04/13 07:29:24;;;;;;;;;3.00;1.00;;;;;17.47;47.37;100373.94;5106606;27;45416;-79
2023/04/13 07:31:50;;;;;;;;;0.50;0.50;;;;;18.25;47.53;100376.88;5098825;27;45504;-79
2023/04/13 07:34:16;;;;;;;;;1.00;1.00;;;;;19.15;47.43;100378.41;5097933;27;45493;-81
2023/04/13 07:36:41;;;;;;;;;0.67;0.67;;;;;19.97;46.92;100383.03;5103691;27;45426;-81
2023/04/13 07:39:10;;;;;;;;;0.00;0.00;;;;;20.74;46.45;100374.41;5108563;27;45371;-79
2023/04/13 07:41:36;;;;;;;;;0.50;0.50;;;;;21.38;45.60;100377.81;5107192;27;45581;-80
2023/04/13 07:44:03;;;;;;;;;1.00;1.00;;;;;21.93;45.03;100381.00;5109842;27;45414;-80
2023/04/13 07:46:28;;;;;;;;;1.00;1.00;;;;;22.41;44.51;100373.09;5108562;27;45456;-81
2023/04/13 07:48:53;;;;;;;;;1.33;1.00;;;;;22.83;43.85;100381.16;5100227;27;54163;-79
2023/04/13 07:51:19;;;;;;;;;0.33;0.00;;;;;23.19;43.41;100377.16;5104925;27;45417;-81
2023/04/13 07:53:45;;;;;;;;;0.00;0.00;;;;;23.47;43.25;100368.63;5110037;27;45412;-81
2023/04/13 07:56:11;;;;;;;;;1.00;1.00;;;;;23.77;42.87;100385.03;5096939;27;45547;-78
2023/04/13 07:58:36;;;;;;;;;1.00;1.00;;;;;24.01;42.46;100383.19;5108856;27;45535;-79
2023/04/13 08:01:01;;;;;;;;;1.00;1.00;;;;;24.19;42.03;100388.31;5108252;27;51790;-78
2023/04/13 08:03:30;;;;;;;;;1.00;1.00;;;;;24.43;41.94;100390.00;5105425;27;45621;-78
2023/04/13 08:05:55;;;;;;;;;2.00;1.00;;;;;24.60;41.54;100389.84;5106323;27;45743;-77
2023/04/13 08:08:21;;;;;;;;;0.67;0.00;;;;;24.78;41.25;100396.81;5106315;27;52743;-78
2023/04/13 08:10:46;;;;;;;;;0.00;0.00;;;;;24.94;40.80;100398.53;5104400;27;45458;-77
2023/04/13 08:13:13;;;;;;;;;1.00;1.00;;;;;25.07;40.62;100401.44;5106888;27;54495;-76
2023/04/13 08:15:38;;;;;;;;;1.00;0.67;;;;;25.17;40.17;100406.56;5108688;27;45851;-77
2023/04/13 08:18:04;;;;;;;;;2.00;1.00;;;;;25.26;39.82;100402.72;5099194;27;45394;-77
2023/04/13 08:20:29;;;;;;;;;0.00;0.00;;;;;25.35;40.22;100400.78;5107847;27;45564;-77
2023/04/13 08:22:54;;;;;;;;;0.00;0.00;;;;;25.41;39.66;100407.31;5108223;27;45818;-77
2023/04/13 08:25:20;;;;;;;;;0.33;0.33;;;;;25.47;39.03;100400.28;5092346;27;55672;-77
2023/04/13 08:27:45;;;;;;;;;1.00;1.00;;;;;25.52;39.14;100409.56;5124513;27;45469;-77
2023/04/13 08:30:11;;;;;;;;;4.33;2.00;;;;;25.59;38.89;100403.38;5106825;27;45400;-76
2023/04/13 08:32:36;;;;;;;;;1.33;1.33;;;;;25.66;38.75;100404.28;5108153;27;45505;-76
2023/04/13 08:35:06;;;;;;;;;2.00;1.00;;;;;25.73;38.57;100412.53;5105603;27;45567;-77
2023/04/13 08:37:32;;;;;;;;;2.33;1.00;;;;;25.85;38.41;100408.28;5089541;27;45502;-77
2023/04/13 08:39:59;;;;;;;;;3.00;2.00;;;;;25.98;38.33;100415.75;5089057;27;45553;-77
2023/04/13 08:42:26;;;;;;;;;3.33;2.00;;;;;26.12;38.21;100413.97;5081449;27;45459;-77
2023/04/13 08:44:58;;;;;;;;;3.00;2.00;;;;;26.21;38.16;100409.28;5084300;27;45493;-77
2023/04/13 08:47:26;;;;;;;;;2.67;2.00;;;;;26.30;37.79;100418.16;5091179;27;45763;-78
2023/04/13 08:49:55;;;;;;;;;1.67;1.67;;;;;26.37;37.53;100416.38;5091771;27;45477;-78
2023/04/13 08:52:21;;;;;;;;;5.00;1.00;;;;;26.46;37.61;100406.16;5094214;27;45439;-77
2023/04/13 08:54:46;;;;;;;;;1.00;1.00;;;;;26.54;37.04;100416.91;5085233;27;46142;-78
2023/04/13 08:57:14;;;;;;;;;3.33;1.00;;;;;26.63;37.09;100423.06;5093683;27;50667;-79
2023/04/13 08:59:42;;;;;;;;;1.00;1.00;;;;;26.68;37.12;100427.88;5094982;27;45488;-78
2023/04/13 09:02:08;;;;;;;;;3.67;2.00;;;;;26.75;36.72;100428.78;5093637;27;45439;-78
2023/04/13 09:04:37;;;;;;;;;3.00;1.00;;;;;26.82;36.81;100421.50;5086192;27;45528;-79
2023/04/13 09:07:03;;;;;;;;;3.00;2.00;;;;;26.90;37.04;100427.84;5086576;27;45505;-79
2023/04/13 09:09:31;;;;;;;;;2.00;0.00;;;;;26.99;36.41;100429.41;5094067;27;45950;-77
2023/04/13 09:11:57;;;;;;;;;2.00;1.00;;;;;27.09;36.28;100434.47;5082849;27;45345;-77
2023/04/13 09:14:22;;;;;;;;;2.00;1.00;;;;;27.18;36.51;100433.28;5085943;27;45417;-78
2023/04/13 09:16:48;;;;;;;;;1.00;1.00;;;;;27.23;36.49;100438.16;5094500;27;45409;-78
2023/04/13 09:19:14;;;;;;;;;1.00;1.00;;;;;27.35;36.50;100435.69;5089634;27;45545;-79
2023/04/13 09:21:41;;;;;;;;;1.33;1.00;;;;;27.43;36.37;100445.56;5093733;27;45303;-78
2023/04/13 09:24:08;;;;;;;;;1.00;1.00;;;;;27.49;36.36;100440.16;5080226;27;45572;-77
2023/04/13 09:26:45;;;;;;;;;0.67;0.67;;;;;27.56;36.33;100433.88;5093674;27;45519;-77
2023/04/13 09:29:15;;;;;;;;;1.67;1.67;;;;;27.60;35.72;100429.75;5086006;27;45583;-77
2023/04/13 09:31:41;;;;;;;;;1.00;0.67;;;;;27.62;35.85;100433.94;5110144;27;45327;-77
2023/04/13 09:34:09;;;;;;;;;1.00;1.00;;;;;27.62;35.34;100441.28;5093254;27;45417;-77
2023/04/13 09:36:36;;;;;;;;;0.33;0.33;;;;;27.60;35.08;100433.31;5092285;27;45787;-78
2023/04/13 09:39:02;;;;;;;;;2.33;1.33;;;;;27.57;35.64;100433.69;5087401;27;45451;-80
2023/04/13 09:41:28;;;;;;;;;1.00;1.00;;;;;27.54;35.01;100430.53;5075841;27;45568;-80
2023/04/13 09:43:54;;;;;;;;;1.00;1.00;;;;;27.51;34.94;100439.13;5090323;27;45442;-80
2023/04/13 09:46:19;;;;;;;;;2.33;1.00;;;;;27.48;35.45;100435.75;5092839;27;45414;-79
2023/04/13 09:48:45;;;;;;;;;1.67;1.00;;;;;27.51;34.82;100429.06;5080379;27;45684;-81
2023/04/13 09:51:10;;;;;;;;;1.00;1.00;;;;;27.53;34.61;100429.69;5089024;27;46222;-79
2023/04/13 09:53:41;;;;;;;;;3.33;1.00;;;;;27.53;35.09;100420.66;5090172;27;46492;-79
2023/04/13 09:56:07;;;;;;;;;0.00;0.00;;;;;27.57;35.05;100436.41;5078675;27;46206;-80
2023/04/13 09:58:40;;;;;;;;;1.00;1.00;;;;;27.53;35.00;100432.41;5084945;27;45498;-79
2023/04/13 10:01:05;;;;;;;;;2.00;1.00;;;;;27.45;34.52;100430.72;5080730;27;45470;-80
2023/04/13 10:03:33;;;;;;;;;1.00;0.00;;;;;27.36;34.83;100421.03;5084248;27;45782;-80
2023/04/13 10:05:59;;;;;;;;;2.00;0.00;;;;;27.31;34.24;100426.22;5080383;27;45481;-80
2023/04/13 10:08:25;;;;;;;;;2.00;0.67;;;;;27.26;34.08;100415.94;5083998;27;45347;-80
2023/04/13 10:10:51;;;;;;;;;1.33;0.00;;;;;27.23;34.24;100416.34;5082523;27;46239;-79
2023/04/13 10:13:25;;;;;;;;;2.00;0.00;;;;;27.17;33.90;100412.53;5079973;27;46077;-79
2023/04/13 10:16:15;;;;;;;;;0.00;0.00;;;;;27.16;34.18;100416.31;5081752;27;45477;-79
2023/04/13 10:19:01;;;;;;;;;0.33;0.33;;;;;27.16;33.83;100410.88;5081332;27;45787;-80
2023/04/13 10:21:38;;;;;;;;;0.67;0.00;;;;;27.17;34.03;100403.50;5081928;27;45634;-79
2023/04/13 10:24:04;;;;;;;;;2.00;1.00;;;;;27.17;33.84;100398.91;5081976;27;45444;-80
2023/04/13 10:26:31;;;;;;;;;1.00;0.00;;;;;27.14;33.71;100407.47;5099353;27;45624;-79
2023/04/13 10:28:59;;;;;;;;;0.00;0.00;;;;;27.11;33.54;100405.19;5078840;27;45397;-79
2023/04/13 10:31:42;;;;;;;;;0.67;0.33;;;;;27.09;33.35;100404.53;5079064;27;45452;-79
2023/04/13 10:34:09;;;;;;;;;1.00;1.00;;;;;27.09;33.74;100426.31;5092289;27;46551;-79
2023/04/13 10:36:42;;;;;;;;;1.33;1.00;;;;;27.11;33.92;100418.78;5081449;27;45638;-80
2023/04/13 10:39:10;;;;;;;;;0.00;0.00;;;;;27.14;33.55;100409.38;5093192;27;45472;-79
2023/04/13 10:41:36;;;;;;;;;0.00;0.00;;;;;27.12;33.79;100420.47;5092792;27;45473;-79
2023/04/13 10:44:03;;;;;;;;;0.33;0.00;;;;;27.08;33.40;100420.03;5092366;27;46088;-80
2023/04/13 10:46:29;;;;;;;;;1.00;1.00;;;;;27.07;33.93;100412.91;5091753;27;45366;-80
2023/04/13 10:48:57;;;;;;;;;1.00;0.00;;;;;27.08;33.12;100411.00;5092710;27;45449;-80
2023/04/13 10:51:23;;;;;;;;;1.00;1.00;;;;;27.13;33.40;100405.81;5091546;27;45396;-79
2023/04/13 10:53:48;;;;;;;;;0.67;0.67;;;;;27.20;33.37;100414.88;5092591;27;46115;-79
2023/04/13 10:56:18;;;;;;;;;1.00;0.00;;;;;27.26;33.86;100406.94;5087099;27;52796;-80
2023/04/13 10:58:51;;;;;;;;;0.00;0.00;;;;;27.31;33.02;100410.75;5079260;27;45417;-75
2023/04/13 11:01:17;;;;;;;;;1.00;0.67;;;;;27.37;33.64;100414.53;5089894;27;45541;-77
2023/04/13 11:03:43;;;;;;;;;0.33;0.33;;;;;27.36;33.01;100400.06;5088050;27;45434;-78
2023/04/13 11:06:09;;;;;;;;;3.00;1.00;;;;;27.43;33.45;100418.31;5092302;27;45417;-78
2023/04/13 11:08:36;;;;;;;;;0.33;0.33;;;;;27.46;33.50;100407.03;5090325;27;45606;-77
2023/04/13 11:11:01;;;;;;;;;1.00;1.00;;;;;27.54;33.59;100406.00;5092076;27;45573;-77
2023/04/13 11:13:28;;;;;;;;;2.00;0.00;;;;;27.61;33.12;100405.00;5086448;27;46284;-77
2023/04/13 11:16:01;;;;;;;;;2.67;1.67;;;;;27.67;33.59;100419.69;5086551;27;45417;-77
2023/04/13 11:18:27;;;;;;;;;0.00;0.00;;;;;27.68;32.87;100410.50;5090261;27;45566;-84
2023/04/13 11:20:53;;;;;;;;;1.00;1.00;;;;;27.69;33.38;100431.25;5076425;27;45819;-82
2023/04/13 11:23:18;;;;;;;;;2.00;0.00;;;;;27.65;32.48;100420.94;5089369;27;46129;-81
2023/04/13 11:25:54;;;;;;;;;4.00;2.67;;;;;27.59;33.16;100419.88;5091884;27;45472;-80
2023/04/13 11:28:25;;;;;;;;;1.00;1.00;;;;;27.50;32.53;100402.81;5092429;27;45426;-80
2023/04/13 11:30:52;;;;;;;;;0.00;0.00;;;;;27.45;32.92;100402.59;5092534;27;45433;-80
2023/04/13 11:33:23;;;;;;;;;1.33;0.33;;;;;27.36;32.91;100394.63;5086993;27;46132;-82
2023/04/13 11:35:50;;;;;;;;;0.00;0.00;;;;;27.28;32.69;100392.06;5090903;27;45509;-88
2023/04/13 11:38:22;;;;;;;;;0.33;0.33;;;;;27.24;32.83;100382.59;5091134;27;45936;-79
2023/04/13 11:40:49;;;;;;;;;0.67;0.67;;;;;27.25;32.91;100383.47;5086289;27;46852;-85
2023/04/13 11:43:18;;;;;;;;;0.00;0.00;;;;;27.24;32.39;100377.16;5083005;27;46274;-84
2023/04/13 11:45:46;;;;;;;;;0.00;0.00;;;;;27.23;32.25;100370.03;5082641;27;45507;-81
2023/04/13 11:48:12;;;;;;;;;1.00;1.00;;;;;27.23;32.27;100370.03;5082544;27;45590;-82
2023/04/13 11:50:38;;;;;;;;;1.00;1.00;;;;;27.25;32.40;100362.50;5090907;27;45433;-79
2023/04/13 11:53:06;;;;;;;;;2.33;1.00;;;;;27.25;32.84;100361.66;5092259;27;46101;-79
2023/04/13 11:55:33;;;;;;;;;1.00;1.00;;;;;27.27;32.72;100360.41;5089888;27;45482;-79
2023/04/13 11:58:14;;;;;;;;;1.33;1.00;;;;;27.26;32.75;100356.00;5079708;27;45430;-78
2023/04/13 12:00:40;;;;;;;;;0.00;0.00;;;;;27.23;32.51;100356.41;5084067;27;45414;-77
2023/04/13 12:03:18;;;;;;;;;0.67;0.67;;;;;27.25;32.53;100361.66;5088643;27;47393;-79
2023/04/13 12:05:46;;;;;;;;;1.00;1.00;;;;;27.26;32.74;100356.00;5091902;27;45457;-79
2023/04/13 12:08:22;;;;;;;;;1.00;1.00;;;;;27.28;31.80;100358.50;5086439;27;45366;-78
2023/04/13 12:10:58;;;;;;;;;0.33;0.00;;;;;27.26;32.36;100356.00;5078593;27;45539;-78
2023/04/13 12:13:24;;;;;;;;;0.00;0.00;;;;;27.26;32.02;100360.63;5089525;27;46262;-81
2023/04/13 12:15:50;;;;;;;;;0.00;0.00;;;;;27.23;31.90;100364.59;5094055;27;45423;-78
2023/04/13 12:18:15;;;;;;;;;0.00;0.00;;;;;27.21;31.82;100363.94;5095468;27;45398;-83
2023/04/13 12:20:42;;;;;;;;;5.00;2.00;;;;;27.17;31.91;100359.94;5094773;27;45664;-80
2023/04/13 12:23:24;;;;;;;;;1.33;1.33;;;;;27.15;32.54;100365.59;5089653;27;45405;-79
2023/04/13 12:26:03;;;;;;;;;0.00;0.00;;;;;27.13;32.44;100373.13;5093183;27;45414;-78
2023/04/13 12:28:38;;;;;;;;;1.33;0.67;;;;;27.12;32.31;100400.56;5094587;27;45437;-77
2023/04/13 12:31:08;;;;;;;;;0.33;0.00;;;;;27.09;31.87;100409.97;5094312;27;45409;-79
2023/04/13 12:33:34;;;;;;;;;0.33;0.00;;;;;27.06;31.66;100422.09;5094240;27;45504;-78
2023/04/13 12:36:00;;;;;;;;;0.67;0.00;;;;;27.02;32.29;100420.81;5093445;27;45448;-78
2023/04/13 12:38:26;;;;;;;;;2.00;1.00;;;;;27.01;32.32;100430.03;5093117;27;45810;-81
2023/04/13 12:40:59;;;;;;;;;0.00;0.00;;;;;26.99;31.76;100443.03;5085950;27;45477;-82
2023/04/13 12:43:25;;;;;;;;;1.00;1.00;;;;;26.98;32.21;100433.19;5083741;27;46330;-78
2023/04/13 12:45:51;;;;;;;;;1.33;0.00;;;;;26.96;32.25;100435.25;5092084;27;45547;-77
2023/04/13 12:48:16;;;;;;;;;0.00;0.00;;;;;26.98;32.30;100429.59;5079307;27;45622;-76
2023/04/13 12:50:41;;;;;;;;;0.00;0.00;;;;;26.95;31.85;100428.13;5095107;27;45940;-75
2023/04/13 12:53:07;;;;;;;;;2.67;0.00;;;;;26.94;31.74;100418.28;5093604;27;53438;-77
2023/04/13 12:55:32;;;;;;;;;0.00;0.00;;;;;26.99;32.37;100412.22;5094156;27;45531;-77
2023/04/13 12:57:58;;;;;;;;;0.00;0.00;;;;;27.05;32.25;100412.25;5094157;27;46177;-77
2023/04/13 13:00:23;;;;;;;;;0.00;0.00;;;;;27.08;32.28;100405.56;5093985;27;45516;-78
2023/04/13 13:02:50;;;;;;;;;1.00;1.00;;;;;27.13;32.12;100394.09;5092991;27;45445;-77
2023/04/13 13:05:16;;;;;;;;;1.00;1.00;;;;;27.15;32.18;100395.56;5085417;27;45460;-77
2023/04/13 13:07:42;;;;;;;;;0.00;0.00;;;;;27.17;32.10;100393.47;5092113;27;45706;-76
2023/04/13 13:10:08;;;;;;;;;0.33;0.33;;;;;27.19;32.14;100380.50;5079840;27;45827;-77
2023/04/13 13:12:33;;;;;;;;;0.00;0.00;;;;;27.22;32.18;100371.09;5089880;27;46215;-78
2023/04/13 13:15:00;;;;;;;;;1.33;0.00;;;;;27.27;32.16;100373.19;5088611;27;45459;-79
2023/04/13 13:17:28;;;;;;;;;0.00;0.00;;;;;27.25;31.93;100367.13;5091820;27;45371;-82
2023/04/13 13:19:54;;;;;;;;;2.00;1.00;;;;;27.24;31.45;100360.81;5094243;27;45859;-79
2023/04/13 13:22:19;;;;;;;;;1.67;0.67;;;;;27.27;31.91;100362.28;5095560;27;46560;-79
2023/04/13 13:24:45;;;;;;;;;0.33;0.33;;;;;27.27;31.64;100357.69;5094204;27;45502;-79
2023/04/13 13:27:10;;;;;;;;;2.33;0.00;;;;;27.28;31.39;100353.91;5093663;27;45831;-79
2023/04/13 13:29:36;;;;;;;;;1.00;1.00;;;;;27.27;31.46;100351.41;5094869;27;45405;-79
2023/04/13 13:32:02;;;;;;;;;0.00;0.00;;;;;27.26;32.02;100356.00;5094190;27;45439;-79
2023/04/13 13:34:27;;;;;;;;;0.00;0.00;;;;;27.27;31.98;100354.13;5092739;27;46117;-80
2023/04/13 13:36:53;;;;;;;;;1.67;0.00;;;;;27.26;31.93;100357.88;5094362;27;45350;-80
2023/04/13 13:39:21;;;;;;;;;0.00;0.00;;;;;27.23;31.96;100350.97;5094140;27;45249;-79
2023/04/13 13:41:46;;;;;;;;;0.00;0.00;;;;;27.20;31.34;100349.50;5094264;27;45473;-80
2023/04/13 13:44:11;;;;;;;;;0.00;0.00;;;;;27.18;31.38;100358.91;5092958;27;45395;-79
2023/04/13 13:46:37;;;;;;;;;1.33;1.00;;;;;27.18;31.28;100367.91;5084964;27;57780;-79
2023/04/13 13:49:02;;;;;;;;;0.00;0.00;;;;;27.18;31.83;100361.63;5093629;27;48882;-80
2023/04/13 13:51:30;;;;;;;;;0.00;0.00;;;;;27.20;31.42;100356.81;5092259;27;53330;-79
2023/04/13 13:53:55;;;;;;;;;1.33;1.00;;;;;27.21;31.35;100355.75;5093036;27;45651;-80
2023/04/13 13:56:21;;;;;;;;;1.00;1.00;;;;;27.27;31.20;100354.13;5093770;27;45489;-80
2023/04/13 13:58:46;;;;;;;;;0.00;0.00;;;;;27.30;31.67;100356.44;5094247;27;45459;-81
2023/04/13 14:01:11;;;;;;;;;1.00;1.00;;;;;27.30;31.13;100348.28;5092938;27;45380;-81
2023/04/13 14:03:37;;;;;;;;;1.67;1.00;;;;;27.29;31.15;100349.28;5093730;27;45471;-81
2023/04/13 14:06:02;;;;;;;;;0.00;0.00;;;;;27.26;31.52;100336.91;5093480;27;45518;-80
2023/04/13 14:08:27;;;;;;;;;0.33;0.33;;;;;27.27;31.18;100354.13;5093732;27;45335;-80
2023/04/13 14:10:53;;;;;;;;;2.00;1.00;;;;;27.25;31.57;100354.31;5093285;27;54660;-83
2023/04/13 14:13:18;;;;;;;;;0.33;0.33;;;;;27.21;31.66;100347.59;5093618;27;45449;-81
2023/04/13 14:15:44;;;;;;;;;2.33;1.00;;;;;27.19;31.14;100349.69;5090846;27;53320;-81
2023/04/13 14:18:09;;;;;;;;;3.00;1.00;;;;;27.17;31.23;100360.78;5090851;27;54388;-84
2023/04/13 14:20:37;;;;;;;;;1.00;1.00;;;;;27.18;30.95;100369.81;5093353;27;58782;-84
2023/04/13 14:23:02;;;;;;;;;1.00;1.00;;;;;27.15;31.14;100364.75;5092112;27;45525;-84
2023/04/13 14:25:28;;;;;;;;;1.00;1.00;;;;;27.14;31.11;100363.06;5091136;27;45476;-83
2023/04/13 14:27:53;;;;;;;;;0.00;0.00;;;;;27.12;31.80;100359.69;5094054;27;45376;-83
2023/04/13 14:30:21;;;;;;;;;1.00;1.00;;;;;27.12;31.60;100357.81;5092228;27;45342;-84
2023/04/13 14:32:48;;;;;;;;;1.00;0.00;;;;;27.14;31.08;100352.19;5083769;27;45440;-82
2023/04/13 14:35:14;;;;;;;;;1.67;0.00;;;;;27.17;31.17;100355.34;5091934;27;46404;-83
2023/04/13 14:37:40;;;;;;;;;0.00;0.00;;;;;27.21;31.69;100353.03;5092851;27;45417;-83
2023/04/13 14:40:12;;;;;;;;;1.00;1.00;;;;;27.23;31.03;100340.88;5092738;27;46396;-83
2023/04/13 14:42:37;;;;;;;;;2.00;1.00;;;;;27.21;31.50;100351.16;5093524;27;45402;-83
2023/04/13 14:45:04;;;;;;;;;0.00;0.00;;;;;27.21;31.40;100343.00;5092676;27;53897;-83
2023/04/13 14:47:29;;;;;;;;;0.00;0.00;;;;;27.22;30.93;100338.41;5092041;27;45381;-83
2023/04/13 14:49:55;;;;;;;;;0.00;0.00;;;;;27.26;31.33;100339.63;5087408;27;45619;-83
2023/04/13 14:52:21;;;;;;;;;0.33;0.33;;;;;27.29;31.50;100341.13;5091118;27;45475;-82
2023/04/13 14:54:47;;;;;;;;;1.00;1.00;;;;;27.31;31.35;100342.63;5087397;27;45465;-82
2023/04/13 14:57:12;;;;;;;;;1.00;0.00;;;;;27.29;31.31;100338.38;5086797;27;45574;-82
2023/04/13 14:59:37;;;;;;;;;1.00;1.00;;;;;27.30;31.38;100332.75;5088981;27;46299;-83
2023/04/13 15:02:04;;;;;;;;;0.00;0.00;;;;;27.30;31.37;100332.75;5085423;27;45556;-78
2023/04/13 15:04:29;;;;;;;;;0.67;0.67;;;;;27.30;31.43;100342.81;5092642;27;45528;-78
2023/04/13 15:06:55;;;;;;;;;0.00;0.00;;;;;27.32;31.63;100338.84;5089712;27;45435;-77
2023/04/13 15:09:20;;;;;;;;;0.00;0.00;;;;;27.35;31.60;100340.31;5091368;27;64582;-77
2023/04/13 15:11:46;;;;;;;;;0.67;0.00;;;;;27.43;31.55;100334.66;5092497;27;47147;-77
2023/04/13 15:14:11;;;;;;;;;0.00;0.00;;;;;27.47;31.24;100341.41;5088794;27;45466;-78
2023/04/13 15:16:36;;;;;;;;;2.00;1.00;;;;;27.54;31.16;100344.13;5084848;27;48195;-77
2023/04/13 15:19:02;;;;;;;;;2.00;0.33;;;;;27.59;31.31;100341.63;5091742;27;45681;-80
2023/04/13 15:21:28;;;;;;;;;0.00;0.00;;;;;27.66;31.20;100332.69;5092799;27;45466;-78
2023/04/13 15:23:53;;;;;;;;;0.33;0.00;;;;;27.75;31.85;100328.72;5086269;27;45411;-78
2023/04/13 15:26:19;;;;;;;;;0.00;0.00;;;;;27.84;31.04;100337.53;5082004;27;45526;-78
2023/04/13 15:28:44;;;;;;;;;0.67;0.67;;;;;27.93;31.79;100335.44;5084943;27;46357;-77
2023/04/13 15:31:10;;;;;;;;;0.00;0.00;;;;;27.99;31.11;100334.59;5084855;27;45477;-78
2023/04/13 15:33:36;;;;;;;;;0.33;0.00;;;;;28.03;31.21;100335.84;5086183;27;45395;-81
2023/04/13 15:36:02;;;;;;;;;0.00;0.00;;;;;28.11;31.06;100340.25;5081892;27;45496;-75
2023/04/13 15:38:27;;;;;;;;;1.00;1.00;;;;;28.15;31.69;100333.34;5086778;27;45460;-79
2023/04/13 15:40:52;;;;;;;;;0.00;0.00;;;;;28.20;31.68;100343.66;5088943;27;61888;-79
2023/04/13 15:43:18;;;;;;;;;0.00;0.00;;;;;28.19;30.88;100336.50;5091252;27;57286;-78
2023/04/13 15:45:44;;;;;;;;;3.00;1.00;;;;;28.16;31.24;100335.06;5086490;27;45407;-79
2023/04/13 15:48:10;;;;;;;;;1.00;0.67;;;;;28.10;31.05;100334.00;5094291;27;47040;-79
2023/04/13 15:50:35;;;;;;;;;0.67;0.67;;;;;28.05;31.33;100343.84;5095540;27;45611;-79
2023/04/13 15:53:00;;;;;;;;;3.00;0.00;;;;;27.95;30.71;100344.28;5096106;27;46175;-79
2023/04/13 15:55:26;;;;;;;;;6.33;0.00;;;;;27.88;30.60;100338.81;5104565;27;45521;-79
2023/04/13 15:57:52;;;;;;;;;1.67;0.00;;;;;27.85;31.06;100342.78;5091570;27;46108;-78
2023/04/13 16:00:18;;;;;;;;;2.00;2.00;;;;;27.81;30.82;100332.47;5094799;27;45535;-80
2023/04/13 16:02:43;;;;;;;;;0.00;0.00;;;;;27.79;31.22;100340.03;5089597;27;45552;-80
2023/04/13 16:05:09;;;;;;;;;0.00;0.00;;;;;27.77;31.25;100342.13;5094199;27;45441;-80
2023/04/13 16:07:34;;;;;;;;;0.33;0.33;;;;;27.74;31.28;100346.94;5088232;27;46273;-76
2023/04/13 16:10:00;;;;;;;;;4.33;2.00;;;;;27.73;30.99;100344.44;5095604;27;45405;-76
2023/04/13 16:12:30;;;;;;;;;2.67;0.00;;;;;27.73;31.19;100345.28;5093678;27;45354;-77
2023/04/13 16:14:59;;;;;;;;;1.00;1.00;;;;;27.72;31.14;100348.22;5089975;27;45616;-76
2023/04/13 16:17:32;;;;;;;;;3.00;1.00;;;;;27.71;31.10;100339.19;5094379;27;45766;-75
2023/04/13 16:20:16;;;;;;;;;1.00;1.00;;;;;27.71;31.12;100349.25;5095190;27;45393;-76
2023/04/13 16:22:47;;;;;;;;;0.00;0.00;;;;;27.71;30.59;100357.44;5094471;27;45774;-76
2023/04/13 16:25:14;;;;;;;;;1.33;0.00;;;;;27.71;30.89;100354.72;5094765;27;45439;-76
2023/04/13 16:27:40;;;;;;;;;2.00;1.00;;;;;27.71;31.10;100362.91;5091680;27;48518;-78
2023/04/13 16:30:07;;;;;;;;;1.00;0.00;;;;;27.72;30.98;100359.13;5090158;27;45754;-76
2023/04/13 16:32:32;;;;;;;;;1.33;1.00;;;;;27.71;30.67;100360.16;5088346;27;45482;-76
2023/04/13 16:34:58;;;;;;;;;0.33;0.33;;;;;27.69;30.42;100364.97;5088154;27;45751;-81
2023/04/13 16:37:23;;;;;;;;;0.00;0.00;;;;;27.64;30.65;100359.28;5092308;27;45310;-80
2023/04/13 16:39:49;;;;;;;;;0.00;0.00;;;;;27.61;31.10;100372.31;5095060;27;45263;-81
2023/04/13 16:42:17;;;;;;;;;1.00;1.00;;;;;27.56;30.93;100369.31;5086939;27;45406;-82
2023/04/13 16:44:43;;;;;;;;;0.33;0.00;;;;;27.52;30.35;100372.66;5092039;27;45688;-83
2023/04/13 16:47:08;;;;;;;;;0.00;0.00;;;;;27.49;30.88;100376.63;5087491;27;46493;-81
2023/04/13 16:49:33;;;;;;;;;1.00;1.00;;;;;27.47;30.94;100374.09;5081784;27;45560;-83
2023/04/13 16:51:59;;;;;;;;;1.00;1.00;;;;;27.45;31.08;100373.47;5093674;27;45437;-81
2023/04/13 16:54:24;;;;;;;;;0.67;0.67;;;;;27.41;31.03;100365.91;5093552;27;45555;-79
2023/04/13 16:56:51;;;;;;;;;3.00;1.00;;;;;27.42;30.49;100376.59;5093095;27;53318;-81
2023/04/13 16:59:17;;;;;;;;;0.00;0.00;;;;;27.43;30.63;100372.00;5094603;27;45594;-82
2023/04/13 17:01:42;;;;;;;;;1.00;1.00;;;;;27.43;30.44;100375.53;5089864;27;45513;-78
2023/04/13 17:04:07;;;;;;;;;1.00;1.00;;;;;27.43;30.45;100381.00;5084144;27;45528;-86
2023/04/13 17:06:36;;;;;;;;;2.00;1.00;;;;;27.46;31.03;100388.78;5093735;27;45848;-86
2023/04/13 17:09:02;;;;;;;;;0.00;0.00;;;;;27.48;30.83;100396.75;5095332;27;45544;-85
2023/04/13 17:11:28;;;;;;;;;2.67;1.00;;;;;27.50;30.43;100394.66;5094336;27;45857;-86
2023/04/13 17:13:53;;;;;;;;;2.00;0.00;;;;;27.52;30.67;100410.81;5086048;27;47056;-82
2023/04/13 17:16:18;;;;;;;;;0.00;0.00;;;;;27.52;30.85;100408.94;5085596;27;56158;-82
2023/04/13 17:18:44;;;;;;;;;2.00;0.00;;;;;27.52;30.92;100414.38;5080472;27;46975;-82
2023/04/13 17:21:10;;;;;;;;;2.00;1.00;;;;;27.49;30.97;100403.88;5080888;27;45659;-81
2023/04/13 17:23:35;;;;;;;;;0.00;0.00;;;;;27.47;30.39;100398.63;5084263;27;45583;-84
2023/04/13 17:26:02;;;;;;;;;1.00;1.00;;;;;27.44;30.80;100390.88;5083481;27;46191;-85
2023/04/13 17:28:27;;;;;;;;;5.00;0.33;;;;;27.40;30.27;100395.03;5081882;27;45690;-84
2023/04/13 17:30:54;;;;;;;;;1.33;1.00;;;;;27.39;30.55;100398.81;5081199;27;46045;-84
2023/04/13 17:33:19;;;;;;;;;0.00;0.00;;;;;27.40;30.86;100402.38;5081301;27;45441;-83
2023/04/13 17:35:45;;;;;;;;;1.00;1.00;;;;;27.41;30.62;100402.19;5080926;27;45708;-84
2023/04/13 17:38:10;;;;;;;;;1.00;1.00;;;;;27.41;31.04;100420.41;5083509;27;45453;-83
2023/04/13 17:40:35;;;;;;;;;1.00;1.00;;;;;27.42;30.93;100422.94;5084163;27;45647;-84
2023/04/13 17:43:01;;;;;;;;;1.00;1.00;;;;;27.39;30.83;100420.63;5083884;27;45949;-83
2023/04/13 17:45:26;;;;;;;;;0.33;0.00;;;;;27.38;30.41;100429.81;5080825;27;45477;-88
2023/04/13 17:47:51;;;;;;;;;3.33;0.33;;;;;27.41;30.51;100436.75;5084971;27;45635;-85
2023/04/13 17:50:17;;;;;;;;;0.33;0.33;;;;;27.43;31.03;100445.56;5084904;27;45544;-84
2023/04/13 17:52:42;;;;;;;;;5.33;2.00;;;;;27.43;30.79;100445.56;5082785;27;45556;-83
2023/04/13 17:55:08;;;;;;;;;6.00;2.33;;;;;27.44;30.45;100439.06;5081927;27;46552;-82
2023/04/13 17:57:33;;;;;;;;;1.00;0.00;;;;;27.42;30.77;100449.34;5082736;27;45623;-84
2023/04/13 18:00:00;;;;;;;;;0.00;0.00;;;;;27.38;30.96;100443.44;5079820;27;51570;-82
2023/04/13 18:02:25;;;;;;;;;0.00;0.00;;;;;27.35;31.02;100441.97;5080892;27;45536;-82
2023/04/13 18:04:50;;;;;;;;;1.33;0.00;;;;;27.35;30.93;100452.03;5081789;27;46302;-82
2023/04/13 18:07:16;;;;;;;;;1.00;0.00;;;;;27.33;30.91;100454.09;5083145;27;46843;-83
2023/04/13 18:09:41;;;;;;;;;0.00;0.00;;;;;27.31;30.62;100453.47;5079937;27;45454;-84
2023/04/13 18:12:06;;;;;;;;;0.00;0.00;;;;;27.27;30.98;100457.66;5080810;27;45722;-84
2023/04/13 18:14:32;;;;;;;;;0.00;0.00;;;;;27.26;30.53;100461.41;5085394;27;45959;-84
2023/04/13 18:16:57;;;;;;;;;0.33;0.33;;;;;27.25;30.80;100462.47;5078428;27;45388;-84
2023/04/13 18:19:23;;;;;;;;;0.00;0.00;;;;;27.25;30.51;100470.63;5083549;27;45520;-83
2023/04/13 18:21:48;;;;;;;;;3.00;2.00;;;;;27.24;31.13;100469.78;5083818;27;45525;-82
2023/04/13 18:24:14;;;;;;;;;1.33;1.00;;;;;27.26;30.42;100475.88;5080111;27;47789;-82
2023/04/13 18:26:39;;;;;;;;;2.00;0.67;;;;;27.27;30.44;100479.44;5083666;27;45450;-83
2023/04/13 18:29:04;;;;;;;;;0.00;0.00;;;;;27.22;30.84;100478.16;5080417;27;45579;-83
2023/04/13 18:31:31;;;;;;;;;0.33;0.33;;;;;27.22;30.86;100485.50;5080180;27;45639;-81
2023/04/13 18:33:56;;;;;;;;;1.00;1.00;;;;;27.19;30.47;100491.34;5081326;27;46389;-80
2023/04/13 18:36:23;;;;;;;;;0.00;0.00;;;;;27.19;30.89;100496.78;5087010;27;51158;-80
2023/04/13 18:38:49;;;;;;;;;1.33;0.00;;;;;27.18;30.95;100498.66;5083238;27;45539;-81
2023/04/13 18:41:14;;;;;;;;;1.67;0.67;;;;;27.17;30.92;100507.88;5091818;27;45495;-80
2023/04/13 18:43:40;;;;;;;;;4.33;2.00;;;;;27.16;30.84;100508.94;5081652;27;46957;-82
2023/04/13 18:46:06;;;;;;;;;2.00;0.33;;;;;27.19;30.52;100514.00;5077197;27;45547;-81
2023/04/13 18:48:32;;;;;;;;;1.00;1.00;;;;;27.22;30.98;100516.28;5087133;27;45456;-79